Time;durP1;ratioP1;P1;durP2;ratioP2;P2;SDS_P1;SDS_P2;PMS_P1;PMS_P2;Temp;Humidity;BMP_temperature;BMP_pressure;BME280_temperature;BME280_humidity;BME280_pressure;Samples;Min_cycle;Max_cycle;Signal;HPM_P1;HPM_P2
2022/04/06 00:00:14;;;;;;;45.28;10.02;;;12.00;99.90;;;12.34;85.30;100276.09;5073922;28;20413;-68
2022/04/06 00:02:43;;;;;;;43.42;10.27;;;12.00;99.90;;;12.33;85.20;100259.31;5073634;28;20045;-68
2022/04/06 00:05:11;;;;;;;41.45;11.85;;;12.00;99.90;;;12.36;84.97;100269.00;5089511;28;20080;-68
2022/04/06 00:07:41;;;;;;;44.85;10.25;;;12.00;99.90;;;12.33;84.92;100271.72;5073550;28;20040;-67
2022/04/06 00:10:12;;;;;;;44.45;11.05;;;12.00;99.90;;;12.24;84.99;100262.16;5073984;28;20079;-68
2022/04/06 00:12:43;;;;;;;40.70;9.75;;;12.00;99.90;;;12.23;85.07;100270.16;5073788;28;20398;-68
2022/04/06 00:15:14;;;;;;;38.97;10.00;;;11.90;99.90;;;12.14;85.08;100250.00;5073380;28;20067;-68
2022/04/06 00:17:42;;;;;;;36.92;10.77;;;11.90;99.90;;;12.23;85.08;100254.25;5073481;28;20037;-68
2022/04/06 00:20:11;;;;;;;37.92;9.65;;;12.00;99.90;;;12.30;85.15;100258.50;5073354;28;20425;-68
2022/04/06 00:22:40;;;;;;;34.53;9.82;;;12.00;99.90;;;12.18;84.90;100256.09;5073506;28;20048;-68
2022/04/06 00:25:10;;;;;;;41.72;10.68;;;11.90;99.90;;;11.89;84.56;100235.50;5073532;28;20040;-68
2022/04/06 00:27:38;;;;;;;40.55;10.23;;;11.90;99.90;;;11.97;84.57;100215.03;5073545;28;20102;-68
2022/04/06 00:30:08;;;;;;;34.95;9.50;;;11.90;99.90;;;12.14;84.21;100254.41;5073239;28;20451;-68
2022/04/06 00:32:38;;;;;;;38.75;10.38;;;11.80;99.90;;;12.12;83.81;100249.16;5073414;28;20115;-68
2022/04/06 00:37:54;;;;;;;29.38;8.43;;;11.90;99.90;;;12.06;82.42;100238.69;5072610;28;20094;-68
2022/04/06 00:40:23;;;;;;;23.55;7.65;;;11.80;99.90;;;12.11;82.28;100239.47;5073086;28;20075;-69
2022/04/06 00:42:53;;;;;;;27.17;8.10;;;11.80;99.90;;;12.16;82.03;100232.28;5073268;28;20052;-68
2022/04/06 00:45:22;;;;;;;30.13;8.65;;;11.90;99.90;;;12.13;82.00;100226.19;5073352;28;20041;-68
2022/04/06 00:47:53;;;;;;;24.15;8.07;;;11.90;99.90;;;12.17;81.89;100227.88;5072090;28;20055;-68
2022/04/06 00:50:24;;;;;;;28.83;8.35;;;11.90;99.90;;;12.20;81.62;100231.31;5073349;28;20049;-68
2022/04/06 00:52:57;;;;;;;31.67;7.93;;;11.90;99.90;;;12.00;81.34;100217.59;5073124;28;20258;-69
2022/04/06 00:55:29;;;;;;;26.25;7.68;;;11.90;99.90;;;12.22;80.94;100223.31;5073087;28;20398;-68
2022/04/06 00:57:58;;;;;;;25.77;6.78;;;11.90;99.90;;;12.05;80.93;100210.44;5073063;28;20043;-68
2022/04/06 01:00:28;;;;;;;22.60;8.25;;;11.90;99.90;;;12.03;80.85;100199.00;5072888;28;20044;-68
2022/04/06 01:02:58;;;;;;;30.25;8.20;;;11.90;99.90;;;12.20;80.64;100215.41;5072840;28;20036;-68
2022/04/06 01:05:27;;;;;;;29.45;8.32;;;11.90;99.90;;;12.23;80.84;100207.38;5073224;28;20072;-68
2022/04/06 01:08:00;;;;;;;26.77;8.13;;;12.00;99.90;;;12.19;81.31;100208.38;5072820;28;20059;-68
2022/04/06 01:10:28;;;;;;;30.17;8.68;;;11.90;99.90;;;12.24;81.56;100205.59;5073066;28;20047;-68
2022/04/06 01:12:57;;;;;;;37.13;9.10;;;11.90;99.90;;;12.20;81.94;100211.88;5073370;28;20097;-68
2022/04/06 01:15:26;;;;;;;28.40;8.63;;;11.90;99.90;;;12.15;82.12;100197.84;5072880;28;20037;-68
2022/04/06 01:17:56;;;;;;;37.47;9.45;;;11.90;99.90;;;12.33;82.10;100213.38;5073052;28;20127;-69
2022/04/06 01:20:25;;;;;;;38.63;10.40;;;12.00;99.90;;;12.25;82.35;100210.88;5071921;28;20048;-69
2022/04/06 01:22:55;;;;;;;30.50;9.07;;;12.00;99.90;;;12.25;82.63;100202.91;5072696;28;20279;-69
2022/04/06 01:25:23;;;;;;;34.80;9.30;;;12.00;99.90;;;12.16;82.74;100211.06;5072917;28;20045;-69
2022/04/06 01:27:51;;;;;;;33.33;8.93;;;11.90;99.90;;;12.05;82.96;100204.25;5071619;28;20095;-68
2022/04/06 01:30:20;;;;;;;30.95;9.68;;;11.80;99.90;;;12.13;83.08;100208.50;5072659;28;20040;-68
2022/04/06 01:32:48;;;;;;;33.13;8.32;;;11.80;99.90;;;12.15;82.84;100208.47;5072894;28;20402;-69
2022/04/06 01:35:17;;;;;;;34.50;9.23;;;11.80;99.90;;;12.08;82.81;100205.06;5072597;28;20047;-68
2022/04/06 01:37:45;;;;;;;31.02;8.77;;;11.80;99.90;;;12.11;82.67;100198.81;5072837;28;20047;-68
2022/04/06 01:40:15;;;;;;;27.35;8.80;;;11.80;99.90;;;12.03;82.71;100204.28;5072572;28;20040;-69
2022/04/06 01:42:43;;;;;;;31.10;9.03;;;11.80;99.90;;;12.05;82.31;100210.44;5072938;28;20086;-68
2022/04/06 01:45:12;;;;;;;28.30;8.60;;;11.80;99.90;;;11.91;82.08;100198.34;5072452;28;20098;-68
2022/04/06 01:47:40;;;;;;;25.40;7.18;;;11.70;99.90;;;11.88;81.50;100195.78;5105346;28;20468;-68
2022/04/06 01:52:56;;;;;;;20.63;7.05;;;11.60;99.90;;;11.84;80.34;100180.84;5076008;28;20098;-68
2022/04/06 01:55:26;;;;;;;16.38;5.97;;;11.60;99.90;;;11.72;79.57;100189.94;5076101;28;20044;-68
2022/04/06 01:57:54;;;;;;;21.58;6.97;;;11.50;99.90;;;11.54;78.90;100164.63;5076337;28;20048;-68
2022/04/06 02:00:23;;;;;;;18.88;6.45;;;11.50;99.90;;;11.88;78.49;100193.13;5075067;28;20119;-68
2022/04/06 02:02:53;;;;;;;20.52;6.38;;;11.60;99.90;;;11.90;78.21;100191.34;5075948;28;20049;-68
2022/04/06 02:05:23;;;;;;;14.55;6.05;;;11.60;99.90;;;11.73;77.59;100178.41;5075991;28;20044;-68
2022/04/06 02:07:51;;;;;;;24.35;6.95;;;11.60;99.90;;;11.85;77.38;100180.81;5075838;28;20098;-68
2022/04/06 02:10:20;;;;;;;24.65;6.10;;;11.60;99.90;;;11.83;76.95;100189.72;5108789;28;20059;-68
2022/04/06 02:12:51;;;;;;;19.75;6.10;;;11.60;99.90;;;11.77;76.68;100185.38;5075763;28;20041;-68
2022/04/06 02:15:20;;;;;;;19.17;6.05;;;11.50;99.90;;;11.79;76.71;100183.59;5076113;28;20044;-68
2022/04/06 02:17:49;;;;;;;18.00;6.15;;;11.50;99.90;;;11.75;76.42;100182.78;5075882;28;20036;-68
2022/04/06 02:20:18;;;;;;;19.80;6.22;;;11.50;99.90;;;11.75;76.24;100189.84;5074906;28;20049;-67
2022/04/06 02:22:50;;;;;;;17.38;5.68;;;11.50;99.90;;;11.69;75.91;100185.56;5074694;28;20049;-68
2022/04/06 02:25:18;;;;;;;14.13;6.50;;;11.40;99.90;;;11.67;75.80;100187.34;5075525;28;20036;-68
2022/04/06 02:27:51;;;;;;;15.80;5.80;;;11.40;99.90;;;11.66;75.67;100172.38;5074761;28;20165;-67
2022/04/06 02:30:21;;;;;;;16.67;5.05;;;11.40;99.90;;;11.63;75.32;100160.94;5075610;28;20047;-68
2022/04/06 02:32:50;;;;;;;14.30;5.45;;;11.40;99.90;;;11.62;75.31;100157.41;5075533;28;20094;-68
2022/04/06 02:35:19;;;;;;;15.70;5.57;;;11.40;99.90;;;11.68;75.31;100170.56;5075457;28;20040;-68
2022/04/06 02:37:47;;;;;;;11.85;5.45;;;11.40;99.90;;;11.53;75.39;100160.25;5074380;28;20118;-68
2022/04/06 02:40:17;;;;;;;15.35;5.38;;;11.40;99.90;;;11.48;75.31;100150.63;5075559;28;20071;-68
2022/04/06 02:42:45;;;;;;;15.95;5.53;;;11.30;99.90;;;11.46;75.53;100145.38;5075256;28;20040;-68
2022/04/06 02:45:15;;;;;;;17.23;5.63;;;11.20;99.90;;;11.45;75.67;100146.28;5075097;28;20041;-68
2022/04/06 02:47:48;;;;;;;19.52;5.20;;;11.20;99.90;;;11.41;75.66;100152.53;5075218;28;20041;-67
2022/04/06 02:50:17;;;;;;;18.50;5.85;;;11.20;99.90;;;11.46;75.54;100145.38;5090971;28;20047;-67
2022/04/06 02:52:45;;;;;;;14.93;5.82;;;11.20;99.90;;;11.36;75.62;100129.72;5074951;28;20056;-67
2022/04/06 02:55:14;;;;;;;15.45;5.85;;;11.20;99.90;;;11.41;75.86;100134.00;5075010;28;20157;-68
2022/04/06 02:57:43;;;;;;;13.10;5.10;;;11.10;99.90;;;10.77;76.06;100031.16;5074934;28;20049;-67
2022/04/06 03:00:15;;;;;;;22.63;5.50;;;11.10;99.90;;;11.36;76.16;100135.84;5075380;28;20048;-69
2022/04/06 03:02:44;;;;;;;15.23;6.03;;;11.10;99.90;;;11.32;76.48;100128.03;5075311;28;20072;-68
2022/04/06 03:05:12;;;;;;;18.23;5.53;;;11.10;99.90;;;11.35;76.59;100133.25;5075001;28;20044;-68
2022/04/06 03:07:41;;;;;;;20.90;5.68;;;11.10;99.90;;;11.38;76.64;100134.06;5075016;28;20459;-67
2022/04/06 03:10:10;;;;;;;19.67;5.00;;;11.10;99.90;;;10.96;76.64;100081.94;5074710;28;20036;-67
2022/04/06 03:12:38;;;;;;;14.73;5.53;;;11.00;99.90;;;11.25;76.74;100123.72;5074650;28;20056;-67
2022/04/06 03:15:08;;;;;;;20.80;6.20;;;11.00;99.90;;;11.25;76.98;100113.13;5074818;28;20044;-67
2022/04/06 03:17:38;;;;;;;20.95;6.30;;;11.00;99.90;;;11.15;77.31;100106.31;5075153;28;20544;-67
2022/04/06 03:20:09;;;;;;;20.50;5.60;;;11.00;99.90;;;11.19;77.17;100122.06;5075154;28;20097;-68
2022/04/06 03:22:37;;;;;;;;;;;11.00;99.90;;;11.21;76.92;100117.63;5074936;28;20037;-67
2022/04/06 03:25:08;;;;;;;18.98;5.72;;;11.00;99.90;;;11.15;77.14;100115.09;5074634;28;19965;-67
2022/04/06 03:27:36;;;;;;;16.30;6.03;;;11.00;99.90;;;11.22;77.11;100127.34;5073357;28;20049;-67
2022/04/06 03:30:08;;;;;;;21.92;5.78;;;11.00;99.90;;;11.25;76.91;100111.38;5074527;28;20127;-67
2022/04/06 03:32:37;;;;;;;19.83;6.40;;;11.00;99.90;;;11.28;76.86;100110.47;5074245;28;20045;-67
2022/04/06 03:35:07;;;;;;;20.58;6.10;;;11.00;99.90;;;11.29;76.85;100102.47;5074414;28;20123;-67
2022/04/06 03:37:36;;;;;;;16.75;5.65;;;11.10;99.90;;;11.40;76.75;100104.94;5073363;28;20056;-67
2022/04/06 03:40:06;;;;;;;28.25;6.57;;;11.10;99.90;;;11.37;77.01;100092.59;5074273;28;20127;-67
2022/04/06 03:42:35;;;;;;;23.15;6.95;;;11.10;99.90;;;11.32;77.96;100097.13;5074671;28;20044;-67
2022/04/06 03:45:05;;;;;;;18.63;6.18;;;11.10;99.90;;;11.35;78.82;100096.19;5073897;28;20068;-67
2022/04/06 03:47:35;;;;;;;27.70;7.32;;;11.10;99.90;;;11.33;79.60;100076.81;5074227;28;20376;-67
2022/04/06 03:50:07;;;;;;;36.35;9.13;;;11.10;99.90;;;11.14;81.16;100071.03;5074204;28;20090;-67
2022/04/06 03:52:36;;;;;;;35.05;8.07;;;11.00;99.90;;;11.18;82.25;100071.81;5073752;28;20044;-67
2022/04/06 03:55:07;;;;;;;35.50;8.85;;;11.00;99.90;;;11.20;83.30;100067.38;5074084;28;20375;-67
2022/04/06 03:57:35;;;;;;;35.13;7.60;;;10.90;99.90;;;11.24;83.10;100074.34;5074031;28;20059;-67
2022/04/06 04:00:06;;;;;;;33.00;7.80;;;11.00;99.90;;;11.20;83.47;100070.91;5072660;28;20044;-67
2022/04/06 04:02:37;;;;;;;29.58;7.30;;;11.00;99.90;;;11.21;83.59;100067.34;5073574;28;20072;-67
2022/04/06 04:05:09;;;;;;;31.05;7.72;;;11.00;99.90;;;11.20;83.30;100059.44;5073603;28;20090;-72
2022/04/06 04:07:38;;;;;;;26.73;7.70;;;11.00;99.90;;;11.22;83.29;100068.22;5073878;28;20098;-71
2022/04/06 04:10:09;;;;;;;24.45;7.15;;;10.90;99.90;;;10.98;83.46;100029.88;5073822;28;20059;-69
2022/04/06 04:12:39;;;;;;;24.70;7.43;;;10.90;99.90;;;11.13;83.21;100063.13;5072684;28;20518;-69
2022/04/06 04:15:08;;;;;;;33.20;8.77;;;10.90;99.90;;;11.16;83.07;100060.41;5073848;28;20498;-70
2022/04/06 04:17:37;;;;;;;29.83;7.28;;;10.90;99.90;;;11.08;82.60;100055.25;5073743;28;20279;-67
2022/04/06 04:20:08;;;;;;;24.00;7.28;;;10.90;99.90;;;11.01;82.53;100027.19;5072336;28;20056;-69
2022/04/06 04:22:37;;;;;;;20.15;6.13;;;10.90;99.90;;;9.69;82.01;99775.09;5073375;28;20440;-70
2022/04/06 04:25:06;;;;;;;26.13;6.70;;;11.00;99.90;;;11.12;82.41;100054.28;5073217;28;20068;-69
2022/04/06 04:27:35;;;;;;;21.93;6.83;;;10.90;99.90;;;11.13;82.22;100036.66;5073323;28;20445;-69
2022/04/06 04:30:05;;;;;;;24.58;6.70;;;10.90;99.90;;;11.06;82.41;100027.94;5073253;28;20482;-69
2022/04/06 04:32:36;;;;;;;27.17;6.88;;;10.80;99.90;;;11.13;82.44;100048.09;5073266;28;20123;-69
2022/04/06 04:35:08;;;;;;;27.00;6.50;;;10.90;99.90;;;11.17;82.49;100036.53;5073216;28;20540;-69
2022/04/06 04:37:37;;;;;;;24.13;6.53;;;10.90;99.90;;;11.18;82.43;100027.72;5073233;28;20036;-69
2022/04/06 04:40:09;;;;;;;32.67;7.53;;;10.90;99.90;;;10.97;82.70;99992.88;5073144;28;20462;-69
2022/04/06 04:42:37;;;;;;;26.38;6.97;;;10.90;99.90;;;11.14;83.03;100026.03;5073474;28;20368;-69
2022/04/06 04:45:08;;;;;;;23.33;6.53;;;10.90;99.90;;;11.10;83.19;100020.81;5073293;28;20456;-69
2022/04/06 04:47:37;;;;;;;28.02;6.70;;;10.90;99.90;;;11.23;83.16;100022.31;5073387;28;20055;-70
2022/04/06 04:50:09;;;;;;;27.15;7.07;;;10.90;99.90;;;11.15;83.21;100014.53;5073058;28;20041;-69
2022/04/06 04:52:37;;;;;;;31.30;7.90;;;10.90;99.90;;;11.15;83.43;100024.25;5073406;28;20114;-69
2022/04/06 04:55:07;;;;;;;26.25;7.53;;;10.90;99.90;;;11.18;83.72;100019.78;5073059;28;20549;-69
2022/04/06 04:57:36;;;;;;;28.63;6.85;;;10.90;99.90;;;11.21;83.90;100011.75;5072985;28;20041;-69
2022/04/06 05:00:06;;;;;;;32.20;7.28;;;11.00;99.90;;;11.14;84.06;100007.50;5073214;28;20033;-69
2022/04/06 05:02:36;;;;;;;24.33;6.85;;;11.00;99.90;;;11.16;83.83;100016.28;5073025;28;20045;-69
2022/04/06 05:05:08;;;;;;;30.58;6.65;;;11.00;99.90;;;11.27;83.89;100024.88;5073507;28;20044;-69
2022/04/06 05:07:37;;;;;;;31.00;7.28;;;11.00;99.90;;;11.24;83.72;100011.72;5072928;28;20045;-69
2022/04/06 05:10:08;;;;;;;30.73;6.95;;;11.00;99.90;;;11.22;83.73;100016.16;5072721;28;20082;-69
2022/04/06 05:12:36;;;;;;;29.63;7.25;;;11.00;99.90;;;11.27;83.61;100018.69;5072879;28;20040;-69
2022/04/06 05:15:07;;;;;;;25.52;7.00;;;11.00;99.90;;;11.24;83.35;100000.25;5073309;28;20040;-69
2022/04/06 05:17:35;;;;;;;;;;;11.00;99.90;;;11.28;83.19;100009.88;5073479;28;20656;-69
2022/04/06 05:20:09;;;;;;;25.95;6.78;;;11.00;99.90;;;11.17;82.66;99996.00;5088197;28;19920;-71
2022/04/06 05:22:39;;;;;;;26.88;7.28;;;11.00;99.90;;;11.21;82.68;100009.09;5072708;28;20102;-70
2022/04/06 05:25:08;;;;;;;20.98;6.38;;;11.00;99.90;;;11.25;82.45;100005.50;5075837;28;20075;-69
2022/04/06 05:27:45;;;;;;;27.23;6.85;;;11.00;99.90;;;11.22;81.86;100005.56;5075571;28;20094;-69
2022/04/06 05:30:16;;;;;;;19.05;6.45;;;11.00;99.90;;;11.27;81.28;100003.69;5077179;28;20090;-69
2022/04/06 05:32:45;;;;;;;24.40;6.07;;;11.00;99.90;;;11.21;81.04;100003.81;5076888;28;20036;-69
2022/04/06 05:35:15;;;;;;;21.38;6.20;;;11.00;99.90;;;11.18;80.64;100008.31;5076749;28;20086;-69
2022/04/06 05:37:45;;;;;;;20.77;5.93;;;10.90;99.90;;;11.13;80.00;99994.31;5075474;28;20542;-69
2022/04/06 05:40:17;;;;;;;27.75;6.95;;;10.90;99.90;;;11.11;79.70;100010.19;5076329;28;20481;-69
2022/04/06 05:42:46;;;;;;;20.30;5.43;;;10.90;99.90;;;11.18;79.27;100008.31;5076598;28;20040;-69
2022/04/06 05:45:15;;;;;;;20.02;5.65;;;10.90;99.90;;;11.16;79.15;100005.69;5076195;28;20462;-69
2022/04/06 05:47:44;;;;;;;20.15;6.15;;;10.90;99.90;;;11.15;78.68;100003.09;5076379;28;20044;-69
2022/04/06 05:50:15;;;;;;;25.02;6.57;;;10.90;99.90;;;11.15;78.31;100001.28;5076408;28;20455;-69
2022/04/06 05:52:44;;;;;;;19.52;5.28;;;10.90;99.90;;;11.12;78.10;99989.91;5076182;28;20052;-69
2022/04/06 05:55:13;;;;;;;25.63;6.60;;;10.80;99.90;;;11.14;78.24;100002.22;5076043;28;20574;-69
2022/04/06 05:57:41;;;;;;;24.98;5.18;;;10.90;99.90;;;11.05;78.27;99983.88;5075939;28;20118;-69
2022/04/06 06:00:11;;;;;;;23.27;6.47;;;10.90;99.90;;;11.15;78.08;99990.69;5076196;28;20167;-69
2022/04/06 06:02:40;;;;;;;21.77;5.72;;;10.90;99.90;;;11.19;78.14;99995.03;5075918;28;20592;-69
2022/04/06 06:05:09;;;;;;;22.95;6.18;;;10.90;99.90;;;11.16;78.03;99976.59;5074688;28;20037;-69
2022/04/06 06:07:38;;;;;;;22.00;5.70;;;11.00;99.90;;;11.23;78.08;99993.19;5075640;28;20437;-69
2022/04/06 06:10:08;;;;;;;21.23;5.60;;;11.00;99.90;;;11.17;78.15;99991.53;5076175;28;20406;-69
2022/04/06 06:12:37;;;;;;;22.55;5.63;;;10.90;99.90;;;11.29;77.88;99990.41;5075771;28;20768;-69
2022/04/06 06:15:07;;;;;;;19.10;5.38;;;11.00;99.90;;;11.27;78.01;99982.50;5075938;28;20072;-69
2022/04/06 06:17:38;;;;;;;18.77;5.47;;;11.00;99.90;;;11.27;77.84;99974.56;5075947;28;20064;-69
2022/04/06 06:20:08;;;;;;;20.83;6.25;;;11.00;99.90;;;11.33;77.99;99979.72;5075961;28;20044;-69
2022/04/06 06:22:38;;;;;;;22.55;6.43;;;11.10;99.90;;;11.33;78.34;99971.78;5076105;28;20044;-69
2022/04/06 06:25:08;;;;;;;21.50;5.70;;;11.10;99.90;;;11.29;78.59;99978.06;5074807;28;20060;-69
2022/04/06 06:27:39;;;;;;;21.38;5.75;;;11.10;99.90;;;11.42;78.93;99987.47;5074383;28;20048;-69
2022/04/06 06:30:11;;;;;;;25.63;6.93;;;11.20;99.90;;;11.41;79.06;99979.56;5075422;28;20045;-69
2022/04/06 06:32:40;;;;;;;24.98;6.47;;;11.20;99.90;;;11.31;79.16;99975.38;5091319;28;20040;-69
2022/04/06 06:35:09;;;;;;;18.02;5.15;;;11.20;99.90;;;11.38;79.93;99969.06;5074754;28;20087;-69
2022/04/06 06:37:46;;;;;;;20.15;6.05;;;11.10;99.90;;;11.37;80.35;99976.13;5075958;28;20055;-69
2022/04/06 06:40:16;;;;;;;25.77;6.18;;;11.20;99.90;;;11.50;80.58;99985.53;5075378;28;20098;-69
2022/04/06 06:42:45;;;;;;;29.23;7.03;;;11.20;99.90;;;11.46;81.21;99977.66;5075394;28;20066;-69
2022/04/06 06:45:13;;;;;;;19.50;5.78;;;11.20;99.90;;;11.48;82.17;99976.75;5075025;28;20283;-67
2022/04/06 06:47:42;;;;;;;22.05;5.90;;;11.20;99.90;;;11.49;83.13;99970.56;5075456;28;20127;-67
2022/04/06 06:50:12;;;;;;;20.75;5.70;;;11.20;99.90;;;11.47;83.65;99972.38;5075289;28;20332;-67
2022/04/06 06:52:42;;;;;;;;;;;11.20;99.90;;;11.46;84.30;99965.31;5075550;28;20101;-67
2022/04/06 06:55:18;;;;;;;20.50;6.03;;;11.20;99.90;;;11.39;84.74;99969.00;5075304;28;19960;-72
2022/04/06 06:57:48;;;;;;;24.42;6.35;;;11.20;99.90;;;11.28;85.40;99962.22;5074973;28;20048;-67
2022/04/06 07:00:18;;;;;;;20.43;5.87;;;11.10;99.90;;;11.24;85.54;99971.13;5075495;28;20440;-67
2022/04/06 07:02:47;;;;;;;19.90;6.38;;;11.00;99.90;;;11.27;86.01;99969.28;5075213;28;20332;-67
2022/04/06 07:05:16;;;;;;;25.92;7.32;;;11.00;99.90;;;11.39;86.45;99958.41;5075072;28;20044;-67
2022/04/06 07:07:54;;;;;;;24.42;6.85;;;11.10;99.90;;;11.28;86.62;99970.16;5074854;28;20045;-67
2022/04/06 07:10:23;;;;;;;25.23;6.07;;;11.10;99.90;;;11.24;86.83;99953.47;5074757;28;20045;-67
2022/04/06 07:12:53;;;;;;;28.90;7.38;;;11.00;99.90;;;11.10;87.32;99934.38;5074896;28;20036;-67
2022/04/06 07:15:22;;;;;;;24.75;6.35;;;11.00;99.90;;;11.22;87.02;99960.56;5073598;28;20491;-68
2022/04/06 07:17:52;;;;;;;23.35;6.00;;;11.00;99.90;;;11.23;87.86;99972.88;5074709;28;20044;-67
2022/04/06 07:20:22;;;;;;;29.90;6.82;;;11.00;99.90;;;11.32;88.13;99969.19;5074796;28;20044;-71
2022/04/06 07:22:52;;;;;;;26.65;7.53;;;11.00;99.90;;;11.21;88.34;99965.88;5074574;28;20033;-71
2022/04/06 07:25:21;;;;;;;30.83;6.78;;;11.00;99.90;;;11.17;89.45;99959.78;5074404;28;20075;-71
2022/04/06 07:27:49;;;;;;;27.50;7.13;;;11.00;99.90;;;11.19;89.79;99957.97;5073517;28;20048;-70
2022/04/06 07:30:18;;;;;;;30.90;7.85;;;11.00;99.90;;;11.22;90.53;99952.63;5073431;28;20049;-69
2022/04/06 07:32:46;;;;;;;37.10;8.13;;;11.00;99.90;;;11.08;90.88;99935.28;5074403;28;20044;-68
2022/04/06 07:35:16;;;;;;;28.08;6.85;;;10.90;99.90;;;11.16;91.15;99942.19;5074075;28;20067;-71
2022/04/06 07:37:47;;;;;;;28.20;7.70;;;10.90;99.90;;;11.21;91.49;99955.28;5073150;28;20444;-70
2022/04/06 07:40:19;;;;;;;28.23;7.05;;;11.00;99.90;;;11.19;91.51;99933.31;5074654;28;20036;-65
2022/04/06 07:42:49;;;;;;;34.10;7.07;;;11.00;99.90;;;11.17;91.54;99935.97;5074357;28;20057;-66
2022/04/06 07:45:21;;;;;;;29.98;7.85;;;11.00;99.90;;;11.19;91.88;99928.88;5074024;28;20040;-66
2022/04/06 07:47:51;;;;;;;29.13;7.68;;;11.00;99.90;;;11.23;91.94;99925.25;5089598;28;20071;-68
2022/04/06 07:50:21;;;;;;;29.20;8.13;;;11.00;99.90;;;11.27;91.91;99926.91;5074253;28;20068;-68
2022/04/06 07:52:50;;;;;;;36.17;8.25;;;11.00;99.90;;;11.05;91.95;99901.84;5073789;28;20044;-67
2022/04/06 07:55:21;;;;;;;35.50;7.05;;;11.00;99.90;;;11.29;92.14;99914.53;5074128;28;20489;-69
2022/04/06 07:57:49;;;;;;;;;;;11.00;99.90;;;11.19;91.87;99930.66;5074798;28;20094;-70
2022/04/06 08:00:18;;;;;;;32.55;8.02;;;11.00;99.90;;;11.20;92.32;99929.75;5072733;28;19921;-68
2022/04/06 08:02:48;;;;;;;36.40;7.90;;;11.00;99.90;;;11.25;92.71;99907.56;5073725;28;20050;-67
2022/04/06 08:05:18;;;;;;;39.60;7.95;;;11.00;99.90;;;11.16;92.82;99913.06;5073966;28;20094;-68
2022/04/06 08:07:50;;;;;;;36.15;8.57;;;11.00;99.90;;;11.25;92.75;99915.50;5073421;28;20539;-68
2022/04/06 08:10:22;;;;;;;32.13;7.57;;;11.00;99.90;;;11.19;92.99;99899.75;5073541;28;20047;-67
2022/04/06 08:12:51;;;;;;;30.38;7.90;;;11.00;99.90;;;10.72;93.23;99825.88;5073664;28;20040;-72
2022/04/06 08:15:19;;;;;;;37.83;8.10;;;11.00;99.90;;;11.29;93.14;99905.69;5073277;28;20115;-69
2022/04/06 08:17:48;;;;;;;33.97;7.93;;;11.00;99.90;;;11.26;93.45;99917.25;5072325;28;20490;-70
2022/04/06 08:20:18;;;;;;;37.20;9.18;;;11.10;99.90;;;11.22;94.06;99920.00;5072383;28;20441;-71
2022/04/06 08:22:48;;;;;;;37.75;8.68;;;11.00;99.90;;;11.31;94.50;99919.78;5073708;28;20094;-70
2022/04/06 08:25:17;;;;;;;39.95;8.20;;;11.10;99.90;;;11.20;95.05;99906.81;5073302;28;20044;-68
2022/04/06 08:28:07;;;;;;;36.05;9.38;;;11.00;99.90;;;11.15;95.31;99908.66;5073276;28;20040;-67
2022/04/06 08:30:39;;;;;;;35.35;8.52;;;11.00;99.90;;;11.33;95.47;99902.97;5073571;28;20052;-67
2022/04/06 08:33:11;;;;;;;37.53;9.50;;;11.00;99.90;;;11.07;95.18;99893.88;5073305;28;20055;-67
2022/04/06 08:35:40;;;;;;;36.63;8.10;;;11.00;99.90;;;11.26;95.18;99901.38;5071967;28;20055;-66
2022/04/06 08:38:12;;;;;;;26.80;7.72;;;11.00;99.90;;;11.29;95.78;99906.59;5073371;28;20055;-67
2022/04/06 08:40:43;;;;;;;36.55;7.95;;;11.00;99.90;;;11.24;96.10;99903.19;5073313;28;20036;-66
2022/04/06 08:43:14;;;;;;;39.92;8.52;;;11.00;99.90;;;11.24;96.11;99900.53;5072995;28;20367;-67
2022/04/06 08:45:43;;;;;;;35.97;8.55;;;11.00;99.90;;;11.29;96.34;99913.66;5073297;28;20032;-66
2022/04/06 08:48:13;;;;;;;36.65;8.60;;;11.00;99.90;;;11.26;96.12;99898.72;5073181;28;20388;-66
2022/04/06 08:50:44;;;;;;;37.65;8.40;;;11.10;99.90;;;11.28;96.18;99901.34;5073030;28;20158;-66
2022/04/06 08:53:13;;;;;;;38.13;8.90;;;11.10;99.90;;;11.20;96.15;99858.28;5072967;28;20064;-66
2022/04/06 08:55:41;;;;;;;37.45;9.60;;;11.10;99.90;;;11.37;96.24;99904.63;5072905;28;20094;-68
2022/04/06 08:58:10;;;;;;;40.33;8.73;;;11.10;99.90;;;11.45;96.04;99897.38;5072517;28;20041;-68
2022/04/06 09:00:40;;;;;;;33.65;9.35;;;11.20;99.90;;;11.41;96.05;99886.91;5071797;28;20076;-69
2022/04/06 09:03:08;;;;;;;35.83;8.45;;;11.20;99.90;;;11.48;95.81;99896.41;5073686;28;20098;-68
2022/04/06 09:05:37;;;;;;;34.53;8.48;;;11.20;99.90;;;11.51;95.74;99915.78;5072969;28;20052;-68
2022/04/06 09:08:07;;;;;;;39.70;8.60;;;11.30;99.90;;;11.44;95.65;99892.13;5072614;28;20585;-68
2022/04/06 09:10:42;;;;;;;49.63;9.00;;;11.20;99.90;;;11.41;95.45;99902.78;5072802;28;20036;-68
2022/04/06 09:13:14;;;;;;;38.30;8.77;;;11.20;99.90;;;11.47;95.65;99900.00;5073129;28;20044;-68
2022/04/06 09:15:45;;;;;;;44.05;8.85;;;11.20;99.90;;;11.46;95.47;99901.75;5072859;28;20041;-68
2022/04/06 09:18:13;;;;;;;;;;;11.30;99.90;;;11.57;95.71;99890.94;5073196;28;20505;-69
2022/04/06 09:20:42;;;;;;;35.95;9.20;;;11.30;99.90;;;11.63;95.25;99906.66;5072680;28;19960;-68
2022/04/06 09:23:12;;;;;;;39.42;8.77;;;11.40;99.90;;;11.62;94.91;99897.84;5072625;28;20071;-68
2022/04/06 09:25:42;;;;;;;34.70;8.20;;;11.40;99.90;;;11.55;94.88;99882.16;5072950;28;20045;-68
2022/04/06 09:28:14;;;;;;;41.50;9.10;;;11.40;99.90;;;11.60;95.00;99899.66;5072577;28;20075;-69
2022/04/06 09:30:46;;;;;;;24.98;7.85;;;11.30;99.90;;;11.68;94.73;99881.84;5071647;28;20052;-69
2022/04/06 09:33:18;;;;;;;32.85;7.72;;;11.40;99.90;;;11.67;94.62;99898.63;5072593;28;20457;-68
2022/04/06 09:35:48;;;;;;;34.33;9.43;;;11.50;99.90;;;11.70;94.30;99873.84;5072889;28;20083;-69
2022/04/06 09:38:22;;;;;;;40.53;9.23;;;11.60;99.90;;;11.90;93.97;99921.06;5072579;28;20041;-68
2022/04/06 09:41:01;;;;;;;35.65;8.50;;;11.60;99.90;;;11.87;93.90;99905.22;5072684;28;20275;-69
2022/04/06 09:43:31;;;;;;;30.05;8.35;;;11.60;99.90;;;12.00;93.82;99911.97;5088405;28;20064;-68
2022/04/06 09:49:09;;;;;;;35.10;8.23;;;11.70;99.90;;;11.96;93.12;99900.56;5072680;28;20219;-69
2022/04/06 09:51:39;;;;;;;35.42;7.97;;;11.70;99.90;;;12.01;93.12;99892.50;5072665;28;20041;-69
2022/04/06 09:54:09;;;;;;;33.37;7.83;;;11.80;99.90;;;11.69;92.94;99824.44;5072273;28;20110;-68
2022/04/06 09:56:38;;;;;;;33.85;8.02;;;11.80;99.90;;;12.02;93.08;99873.88;5072477;28;20037;-67
2022/04/06 09:59:09;;;;;;;30.90;8.00;;;11.80;99.90;;;12.07;92.47;99849.91;5072424;28;20075;-67
2022/04/06 10:01:42;;;;;;;28.10;7.35;;;11.90;99.90;;;11.77;92.48;99788.00;5072383;28;20045;-67
2022/04/06 10:04:13;;;;;;;32.67;7.57;;;11.90;99.90;;;12.20;92.22;99865.47;5072575;28;20421;-68
2022/04/06 10:06:42;;;;;;;;;;;12.00;99.90;;;12.11;91.83;99900.19;5073044;28;20086;-68
2022/04/06 10:09:14;;;;;;;29.90;7.10;;;11.90;99.90;;;12.21;91.51;99876.94;5072754;28;19971;-68
2022/04/06 10:11:43;;;;;;;28.20;7.70;;;12.00;99.90;;;12.14;91.40;99875.34;5074700;28;20040;-69
2022/04/06 10:14:12;;;;;;;31.38;8.07;;;11.90;99.90;;;12.26;91.44;99873.25;5075787;28;20048;-68
2022/04/06 10:16:44;;;;;;;22.50;7.15;;;12.00;99.90;;;12.19;91.41;99866.38;5075967;28;20390;-68
2022/04/06 10:19:15;;;;;;;28.05;7.07;;;12.00;99.90;;;12.22;91.25;99860.97;5076003;28;20127;-67
2022/04/06 10:21:53;;;;;;;26.92;6.72;;;12.00;99.90;;;12.28;90.56;99857.28;5076334;28;20044;-67
2022/04/06 10:24:37;;;;;;;22.27;6.57;;;12.10;99.90;;;12.28;90.76;99865.25;5075559;28;20087;-60
2022/04/06 10:27:16;;;;;;;24.85;6.90;;;12.10;99.90;;;12.31;90.14;99852.78;5074548;28;20048;-73
2022/04/06 10:30:09;;;;;;;25.73;6.95;;;12.10;99.90;;;12.29;90.06;99837.84;5075494;28;20040;-67